createdAt,value
2023-01-19T00:00:26.911Z,86.97
2023-01-19T00:03:29.484Z,87.00
2023-01-19T00:06:32.505Z,86.92
2023-01-19T00:09:38.506Z,87.07
2023-01-19T00:12:40.909Z,87.09
2023-01-19T00:15:45.142Z,87.18
2023-01-19T00:18:48.028Z,87.38
2023-01-19T00:21:50.717Z,87.49
2023-01-19T00:24:52.984Z,87.51
2023-01-19T00:27:57.099Z,87.46
2023-01-19T00:30:59.935Z,87.66
2023-01-19T00:34:03.918Z,87.71
2023-01-19T00:37:07.439Z,87.74
2023-01-19T00:40:10.675Z,87.61
2023-01-19T00:43:12.994Z,87.49
2023-01-19T00:46:15.798Z,87.58
2023-01-19T00:49:18.701Z,87.41
2023-01-19T00:52:21.487Z,87.41
2023-01-19T00:55:24.046Z,87.39
2023-01-19T00:58:26.943Z,87.39
2023-01-19T01:01:45.056Z,87.57
2023-01-19T01:04:54.773Z,87.40
2023-01-19T01:07:57.474Z,87.27
2023-01-19T01:11:01.027Z,87.34
2023-01-19T01:14:03.289Z,87.26
2023-01-19T01:17:06.087Z,87.29
2023-01-19T01:20:09.140Z,87.29
2023-01-19T01:23:14.388Z,87.17
2023-01-19T01:26:16.648Z,87.04
2023-01-19T01:29:19.266Z,87.13
2023-01-19T01:32:21.616Z,87.06
2023-01-19T01:35:24.274Z,87.13
2023-01-19T01:38:26.696Z,87.34
2023-01-19T01:41:29.578Z,87.38
2023-01-19T01:44:54.640Z,87.33
2023-01-19T01:48:13.285Z,87.59
2023-01-19T01:51:30.976Z,87.43
2023-01-19T01:54:33.811Z,87.25
2023-01-19T01:57:39.017Z,87.00
2023-01-19T02:01:00.945Z,87.02
2023-01-19T02:04:03.718Z,86.77
2023-01-19T02:07:24.439Z,86.52
2023-01-19T02:10:45.717Z,86.27
2023-01-19T02:13:48.772Z,85.94
2023-01-19T02:16:51.745Z,85.36
2023-01-19T02:19:54.350Z,85.29
2023-01-19T02:23:03.871Z,85.43
2023-01-19T02:26:09.565Z,85.26
2023-01-19T02:29:16.353Z,85.32
2023-01-19T02:32:18.694Z,85.38
2023-01-19T02:35:22.545Z,85.39
2023-01-19T02:38:28.090Z,85.45
2023-01-19T02:41:35.902Z,85.24
2023-01-19T02:44:39.548Z,85.05
2023-01-19T02:47:51.166Z,84.94
2023-01-19T02:51:04.137Z,84.71
2023-01-19T02:54:24.573Z,84.37
2023-01-19T02:57:34.457Z,84.79
2023-01-19T03:00:46.900Z,84.95
2023-01-19T03:04:23.259Z,84.68
2023-01-19T03:07:44.866Z,84.74
2023-01-19T03:11:07.500Z,84.64
2023-01-19T03:14:20.162Z,84.57
2023-01-19T03:17:22.696Z,84.28
2023-01-19T03:20:28.806Z,84.22
2023-01-19T03:23:34.758Z,84.42
2023-01-19T03:26:44.180Z,84.33
2023-01-19T03:29:52.190Z,84.51
2023-01-19T03:33:05.197Z,84.22
2023-01-19T03:36:27.367Z,83.99
2023-01-19T03:39:30.842Z,83.87
2023-01-19T03:42:33.973Z,84.15
2023-01-19T03:45:39.207Z,84.25
2023-01-19T03:48:42.176Z,84.49
2023-01-19T03:51:45.324Z,84.47
2023-01-19T03:54:48.252Z,84.42
2023-01-19T03:57:50.880Z,84.17
2023-01-19T04:00:55.335Z,84.46
2023-01-19T04:03:58.172Z,84.38
2023-01-19T04:07:01.356Z,84.14
2023-01-19T04:10:04.271Z,84.32
2023-01-19T04:13:06.879Z,84.22
2023-01-19T04:16:10.681Z,84.25
2023-01-19T04:19:13.010Z,84.01
2023-01-19T04:22:15.657Z,83.97
2023-01-19T04:25:17.967Z,84.05
2023-01-19T04:28:20.720Z,84.12
2023-01-19T04:31:23.485Z,84.19
2023-01-19T04:34:26.128Z,83.90
2023-01-19T04:37:28.504Z,83.32
2023-01-19T04:40:31.142Z,83.18
2023-01-19T04:43:33.866Z,83.03
2023-01-19T04:46:36.506Z,82.67
2023-01-19T04:49:38.981Z,82.42
2023-01-19T04:52:41.576Z,82.75
2023-01-19T04:55:44.126Z,82.35
2023-01-19T04:58:46.738Z,82.02
2023-01-19T05:01:49.075Z,82.04
2023-01-19T05:04:52.286Z,82.04
2023-01-19T05:07:54.953Z,82.39
2023-01-19T05:10:57.981Z,81.63
2023-01-19T05:14:00.411Z,81.74
2023-01-19T05:17:04.968Z,81.44
2023-01-19T05:20:09.328Z,81.11
2023-01-19T05:23:11.943Z,81.46
2023-01-19T05:26:14.485Z,81.58
2023-01-19T05:29:17.183Z,81.48
2023-01-19T05:32:19.489Z,81.44
2023-01-19T05:35:31.251Z,81.23
2023-01-19T05:38:37.317Z,81.37
2023-01-19T05:41:40.006Z,81.21
2023-01-19T05:44:42.344Z,81.08
2023-01-19T05:47:44.884Z,81.12
2023-01-19T05:50:49.488Z,81.29
2023-01-19T05:53:52.335Z,81.52
2023-01-19T05:56:54.613Z,81.31
2023-01-19T05:59:57.234Z,81.40
2023-01-19T06:03:01.021Z,81.10
2023-01-19T06:06:04.183Z,81.02
2023-01-19T06:09:07.885Z,80.58
2023-01-19T06:12:10.417Z,80.48
2023-01-19T06:15:14.175Z,79.92
2023-01-19T06:18:16.850Z,79.92
2023-01-19T06:21:19.204Z,80.03
2023-01-19T06:24:23.123Z,80.12
2023-01-19T06:27:25.512Z,80.16
2023-01-19T06:30:29.092Z,80.05
2023-01-19T06:33:31.573Z,80.04
2023-01-19T06:36:34.171Z,80.44
2023-01-19T06:39:37.999Z,80.39
2023-01-19T06:42:41.240Z,80.39
2023-01-19T06:45:46.095Z,80.30
2023-01-19T06:48:49.563Z,80.40
2023-01-19T06:51:51.920Z,80.73
2023-01-19T06:54:54.548Z,80.56
2023-01-19T06:57:59.649Z,80.43
2023-01-19T07:01:06.995Z,80.20
2023-01-19T07:04:10.730Z,80.35
2023-01-19T07:07:13.310Z,80.40
2023-01-19T07:10:16.407Z,80.38
2023-01-19T07:13:19.021Z,80.11
2023-01-19T07:16:21.657Z,79.70
2023-01-19T07:19:24.506Z,79.90
2023-01-19T07:22:26.783Z,79.83
2023-01-19T07:25:30.310Z,79.94
2023-01-19T07:28:33.620Z,80.00
2023-01-19T07:31:36.436Z,80.17
2023-01-19T07:34:38.983Z,79.81
2023-01-19T07:37:41.608Z,79.96
2023-01-19T07:40:44.129Z,79.88
2023-01-19T07:43:46.791Z,79.90
2023-01-19T07:46:51.190Z,80.07
2023-01-19T07:49:54.068Z,79.81
2023-01-19T07:52:56.530Z,79.55
2023-01-19T07:55:59.272Z,79.79
2023-01-19T07:59:01.719Z,79.47
2023-01-19T08:02:04.943Z,79.71
2023-01-19T08:05:08.486Z,79.41
2023-01-19T08:08:13.338Z,79.48
2023-01-19T08:11:19.806Z,79.30
2023-01-19T08:14:24.333Z,79.17
2023-01-19T08:17:27.232Z,79.05
2023-01-19T08:20:30.093Z,79.22
2023-01-19T08:23:32.856Z,78.79
2023-01-19T08:26:35.793Z,78.63
2023-01-19T08:29:38.851Z,78.66
2023-01-19T08:32:41.377Z,78.51
2023-01-19T08:35:48.586Z,78.59
2023-01-19T08:38:54.190Z,79.03
2023-01-19T08:41:59.265Z,78.98
2023-01-19T08:45:07.137Z,79.07
2023-01-19T08:48:23.558Z,78.99
2023-01-19T08:51:30.106Z,78.85
2023-01-19T08:54:35.369Z,78.89
2023-01-19T08:57:40.699Z,78.88
2023-01-19T09:00:43.583Z,79.19
2023-01-19T09:03:47.048Z,79.29
2023-01-19T09:06:53.151Z,79.56
2023-01-19T09:09:59.493Z,79.69
2023-01-19T09:13:21.359Z,79.92
2023-01-19T09:16:27.358Z,79.57
2023-01-19T09:19:34.936Z,79.41
2023-01-19T09:22:39.753Z,79.67
2023-01-19T09:25:51.718Z,79.70
2023-01-19T09:28:57.161Z,79.60
2023-01-19T09:31:59.887Z,79.99
2023-01-19T09:35:05.117Z,80.16
2023-01-19T09:38:13.230Z,80.33
2023-01-19T09:41:25.156Z,80.18
2023-01-19T09:44:34.380Z,80.28
2023-01-19T09:47:42.245Z,79.89
2023-01-19T09:50:48.547Z,79.74
2023-01-19T09:54:28.400Z,79.61
2023-01-19T09:57:44.779Z,79.71
2023-01-19T10:01:35.142Z,79.86
2023-01-19T10:04:49.180Z,79.91
2023-01-19T10:08:28.727Z,79.78
2023-01-19T10:11:57.700Z,79.55
2023-01-19T10:15:15.155Z,80.07
2023-01-19T10:18:25.658Z,80.03
2023-01-19T10:21:43.864Z,80.17
2023-01-19T10:24:56.188Z,80.13
2023-01-19T10:28:03.115Z,79.59
2023-01-19T10:31:16.343Z,79.65
2023-01-19T10:34:23.384Z,79.99
2023-01-19T10:37:31.867Z,80.02
2023-01-19T10:40:43.443Z,79.92
2023-01-19T10:43:47.969Z,79.85
2023-01-19T10:47:01.969Z,80.02
2023-01-19T10:50:43.358Z,80.35
2023-01-19T10:54:06.265Z,80.54
2023-01-19T10:57:19.002Z,80.42
2023-01-19T11:00:42.222Z,79.96
2023-01-19T11:03:46.800Z,79.99
2023-01-19T11:06:53.580Z,80.13
2023-01-19T11:10:15.444Z,80.24
2023-01-19T11:13:24.933Z,79.78
2023-01-19T11:16:35.999Z,80.01
2023-01-19T11:19:38.711Z,80.05
2023-01-19T11:22:44.740Z,79.59
2023-01-19T11:25:54.146Z,79.49
2023-01-19T11:28:58.980Z,79.53
2023-01-19T11:32:20.781Z,79.66
2023-01-19T11:35:42.097Z,79.27
2023-01-19T11:38:50.405Z,78.92
2023-01-19T11:42:04.828Z,79.04
2023-01-19T11:45:22.853Z,79.23
2023-01-19T11:48:29.968Z,79.29
2023-01-19T11:51:59.175Z,79.33
2023-01-19T11:55:21.518Z,78.70
2023-01-19T11:58:25.783Z,78.64
2023-01-19T12:01:37.590Z,78.76
2023-01-19T12:04:48.651Z,78.51
2023-01-19T12:07:54.255Z,78.81
2023-01-19T12:11:05.119Z,78.50
2023-01-19T12:14:27.206Z,78.54
2023-01-19T12:17:34.971Z,78.78
2023-01-19T12:20:52.168Z,78.59
2023-01-19T12:24:30.044Z,78.44
2023-01-19T12:27:35.418Z,78.73
2023-01-19T12:30:58.221Z,78.91
2023-01-19T12:34:35.584Z,79.25
2023-01-19T12:37:49.461Z,79.17
2023-01-19T12:41:16.133Z,79.02
2023-01-19T12:44:27.454Z,79.00
2023-01-19T12:47:30.142Z,78.83
2023-01-19T12:50:39.056Z,78.90
2023-01-19T12:53:56.186Z,79.42
2023-01-19T12:57:09.724Z,79.49
2023-01-19T13:00:24.670Z,79.51
2023-01-19T13:03:33.378Z,79.27
2023-01-19T13:07:22.797Z,79.18
2023-01-19T13:11:06.700Z,79.17
2023-01-19T13:14:29.281Z,79.14
2023-01-19T13:17:49.978Z,79.31
2023-01-19T13:21:02.176Z,79.26
2023-01-19T13:24:15.044Z,79.26
2023-01-19T13:27:17.928Z,78.96
2023-01-19T13:30:26.622Z,78.85
2023-01-19T13:33:41.233Z,78.35
2023-01-19T13:36:49.321Z,78.47
2023-01-19T13:40:03.325Z,78.08
2023-01-19T13:43:21.401Z,78.34
2023-01-19T13:46:46.283Z,78.02
2023-01-19T13:49:54.657Z,78.05
2023-01-19T13:52:59.000Z,77.71
2023-01-19T13:56:14.728Z,77.83
2023-01-19T13:59:21.627Z,77.79
2023-01-19T14:02:26.879Z,77.92
2023-01-19T14:05:32.617Z,77.94
2023-01-19T14:08:35.151Z,78.00
2023-01-19T14:11:38.269Z,78.30
2023-01-19T14:14:48.359Z,77.85
2023-01-19T14:18:22.728Z,77.94
2023-01-19T14:21:29.292Z,78.36
2023-01-19T14:24:35.006Z,78.37
2023-01-19T14:27:48.180Z,78.20
2023-01-19T14:31:00.460Z,77.77
2023-01-19T14:34:03.007Z,77.89
2023-01-19T14:37:14.993Z,77.75
2023-01-19T14:40:20.459Z,77.52
2023-01-19T14:43:27.456Z,77.97
2023-01-19T14:46:30.984Z,77.60
2023-01-19T14:49:47.550Z,77.24
2023-01-19T14:53:10.398Z,77.33
2023-01-19T14:56:15.035Z,77.01
2023-01-19T14:59:23.091Z,77.44
2023-01-19T15:02:26.328Z,76.99
2023-01-19T15:05:28.848Z,76.72
2023-01-19T15:08:34.549Z,76.89
2023-01-19T15:11:37.318Z,76.92
2023-01-19T15:14:40.863Z,77.34
2023-01-19T15:17:43.563Z,77.27
2023-01-19T15:20:46.361Z,77.92
2023-01-19T15:23:49.487Z,77.17
2023-01-19T15:26:52.418Z,77.60
2023-01-19T15:29:54.854Z,77.74
2023-01-19T15:32:59.132Z,77.97
2023-01-19T15:36:01.588Z,77.87
2023-01-19T15:39:04.324Z,77.41
2023-01-19T15:42:16.700Z,77.56
2023-01-19T15:45:48.033Z,77.58
2023-01-19T15:48:50.761Z,77.40
2023-01-19T15:51:53.690Z,77.82
2023-01-19T15:54:57.621Z,77.89
2023-01-19T15:58:03.467Z,77.54
2023-01-19T16:01:06.135Z,77.82
2023-01-19T16:04:11.974Z,77.21
2023-01-19T16:07:14.552Z,77.33
2023-01-19T16:10:17.443Z,77.54
2023-01-19T16:13:19.971Z,77.46
2023-01-19T16:16:26.823Z,77.60
2023-01-19T16:19:29.657Z,77.55
2023-01-19T16:22:32.780Z,77.53
2023-01-19T16:25:35.899Z,77.70
2023-01-19T16:28:38.676Z,77.86
2023-01-19T16:31:42.889Z,77.70
2023-01-19T16:34:45.657Z,77.81
2023-01-19T16:37:50.618Z,77.91
2023-01-19T16:40:53.238Z,77.75
2023-01-19T16:43:57.793Z,77.86
2023-01-19T16:47:00.602Z,78.03
2023-01-19T16:50:03.042Z,78.04
2023-01-19T16:53:05.748Z,78.06
2023-01-19T16:56:10.740Z,77.64
2023-01-19T16:59:15.349Z,77.35
2023-01-19T17:02:18.038Z,77.40
2023-01-19T17:05:20.648Z,77.32
2023-01-19T17:08:23.072Z,77.56
2023-01-19T17:11:28.803Z,77.42
2023-01-19T17:14:31.297Z,76.86
2023-01-19T17:17:36.290Z,76.84
2023-01-19T17:20:38.630Z,76.50
2023-01-19T17:23:46.255Z,76.63
2023-01-19T17:26:48.981Z,76.59
2023-01-19T17:29:51.646Z,76.55
2023-01-19T17:32:54.021Z,76.76
2023-01-19T17:36:02.881Z,76.49
2023-01-19T17:39:08.308Z,76.53
2023-01-19T17:42:10.959Z,76.61
2023-01-19T17:45:13.352Z,76.78
2023-01-19T17:48:17.511Z,76.45
2023-01-19T17:51:20.155Z,76.58
2023-01-19T17:54:22.885Z,76.33
2023-01-19T17:57:25.211Z,76.31
2023-01-19T18:00:29.033Z,76.08
2023-01-19T18:03:31.656Z,76.41
2023-01-19T18:06:34.191Z,76.32
2023-01-19T18:09:37.102Z,76.43
2023-01-19T18:12:39.913Z,76.61
2023-01-19T18:15:42.606Z,76.65
2023-01-19T18:18:44.928Z,76.58
2023-01-19T18:21:48.355Z,76.33
2023-01-19T18:24:50.909Z,76.74
2023-01-19T18:27:53.476Z,76.52
2023-01-19T18:30:56.021Z,76.39
2023-01-19T18:33:59.591Z,76.18
2023-01-19T18:37:01.986Z,76.08
2023-01-19T18:40:05.275Z,75.99
2023-01-19T18:43:09.238Z,76.23
2023-01-19T18:46:12.645Z,76.40
2023-01-19T18:49:15.055Z,76.23
2023-01-19T18:52:17.693Z,76.37
2023-01-19T18:55:20.123Z,76.31
2023-01-19T18:58:24.357Z,76.22
2023-01-19T19:01:33.316Z,76.20
2023-01-19T19:04:36.144Z,76.03
2023-01-19T19:07:38.560Z,75.76
2023-01-19T19:10:42.238Z,75.95
2023-01-19T19:13:45.260Z,75.58
2023-01-19T19:16:47.881Z,75.72
2023-01-19T19:19:50.328Z,76.06
2023-01-19T19:22:52.996Z,76.06
2023-01-19T19:25:55.332Z,75.85
2023-01-19T19:28:58.202Z,75.88
2023-01-19T19:32:00.539Z,76.29
2023-01-19T19:35:03.243Z,76.24
2023-01-19T19:38:05.614Z,76.40
2023-01-19T19:41:10.027Z,76.46
2023-01-19T19:44:12.875Z,76.38
2023-01-19T19:47:15.468Z,76.34
2023-01-19T19:50:17.889Z,76.14
2023-01-19T19:53:21.662Z,76.15
2023-01-19T19:56:25.829Z,76.00
2023-01-19T19:59:28.433Z,75.86
2023-01-19T20:02:31.077Z,75.66
2023-01-19T20:05:35.919Z,75.54
2023-01-19T20:08:38.248Z,75.76
2023-01-19T20:13:27.270Z,73.44
2023-01-19T20:16:30.132Z,73.44
2023-01-19T20:19:32.731Z,75.29
2023-01-19T20:22:35.451Z,75.29
2023-01-19T20:25:39.746Z,75.41
2023-01-19T20:28:42.580Z,75.22
2023-01-19T20:31:48.949Z,75.43
2023-01-19T20:34:51.840Z,75.06
2023-01-19T20:37:54.358Z,75.22
2023-01-19T20:40:57.292Z,75.15
2023-01-19T20:43:59.641Z,75.39
2023-01-19T20:47:02.253Z,75.72
2023-01-19T20:50:06.436Z,75.50
2023-01-19T20:53:09.061Z,75.56
2023-01-19T20:56:13.972Z,75.67
2023-01-19T20:59:17.373Z,75.60
2023-01-19T21:02:20.989Z,75.88
2023-01-19T21:05:24.220Z,75.89
2023-01-19T21:08:26.544Z,75.67
2023-01-19T21:11:29.528Z,75.81
2023-01-19T21:14:32.000Z,75.60
2023-01-19T21:17:34.644Z,75.81
2023-01-19T21:20:37.128Z,75.84
2023-01-19T21:23:39.772Z,75.94
2023-01-19T21:26:42.182Z,76.15
2023-01-19T21:29:44.865Z,75.96
2023-01-19T21:32:47.414Z,75.78
2023-01-19T21:35:55.409Z,75.53
2023-01-19T21:39:00.602Z,75.50
2023-01-19T21:42:03.723Z,75.60
2023-01-19T21:45:07.976Z,75.87
2023-01-19T21:48:10.707Z,76.08
2023-01-19T21:51:14.367Z,76.06
2023-01-19T21:54:17.329Z,75.92
2023-01-19T21:57:19.783Z,75.92
2023-01-19T22:00:22.797Z,75.89
2023-01-19T22:03:27.327Z,75.79
2023-01-19T22:06:29.763Z,75.90
2023-01-19T22:09:36.252Z,75.75
2023-01-19T22:12:40.307Z,75.72
2023-01-19T22:15:43.117Z,75.64
2023-01-19T22:18:49.952Z,75.55
2023-01-19T22:21:52.616Z,75.67
2023-01-19T22:24:55.007Z,75.46
2023-01-19T22:27:58.681Z,75.42
2023-01-19T22:31:09.009Z,75.34
2023-01-19T22:34:12.010Z,75.37
2023-01-19T22:37:14.483Z,75.37
2023-01-19T22:40:18.517Z,75.11
2023-01-19T22:43:20.932Z,74.87
2023-01-19T22:46:28.086Z,75.29
2023-01-19T22:49:33.205Z,75.22
2023-01-19T22:52:35.874Z,75.39
2023-01-19T22:55:38.362Z,75.16
2023-01-19T22:58:51.249Z,75.05
2023-01-19T23:02:01.037Z,74.96
2023-01-19T23:05:04.111Z,75.18
2023-01-19T23:08:06.508Z,75.30
2023-01-19T23:11:22.797Z,74.98
2023-01-19T23:14:25.267Z,75.00
2023-01-19T23:17:27.903Z,74.91
2023-01-19T23:20:30.240Z,74.75
2023-01-19T23:23:33.970Z,74.90
2023-01-19T23:26:39.126Z,75.02
2023-01-19T23:29:41.794Z,74.92
2023-01-19T23:32:48.551Z,74.68
2023-01-19T23:35:51.278Z,74.60
2023-01-19T23:38:56.797Z,74.39
2023-01-19T23:41:59.461Z,74.40
2023-01-19T23:45:01.951Z,74.33
2023-01-19T23:48:04.750Z,74.88
2023-01-19T23:51:09.102Z,74.82
2023-01-19T23:54:12.423Z,74.76
2023-01-19T23:57:14.766Z,74.41
